EDT,Max TemperatureF,Mean TemperatureF,Min TemperatureF,Max Dew PointF,MeanDew PointF,Min DewpointF,Max Humidity, Mean Humidity, Min Humidity, Max Sea Level PressureIn, Mean Sea Level PressureIn, Min Sea Level PressureIn, Max VisibilityMiles, Mean VisibilityMiles, Min VisibilityMiles, Max Wind SpeedMPH, Mean Wind SpeedMPH, Max Gust SpeedMPH,PrecipitationIn, CloudCover, Events, WindDirDegrees
2012-10-1,64,54,43,49,45,42,100,78,56,30.00,29.90,29.83,10,10,8,17,8,25,T,3,,283
2012-10-2,59,57,54,58,53,46,100,86,72,30.04,30.01,29.98,10,4,0,9,4,13,0.92,8,Fog-Rain,116
2012-10-3,70,65,59,68,64,57,100,95,90,30.17,30.09,30.02,10,4,0,9,3,13,0.02,7,Fog-Rain,229
2012-10-4,70,63,56,64,62,54,100,87,73,30.19,30.15,30.09,10,5,1,10,4,22,0.17,6,Rain,293
2012-10-5,74,61,48,56,53,49,89,69,49,30.12,30.05,29.94,10,10,7,14,7,21,0.00,1,,272
2012-10-6,66,54,41,55,49,38,93,80,67,30.02,29.88,29.81,10,8,2,20,8,31,0.01,5,Rain,289
2012-10-7,49,44,38,40,37,33,93,75,56,30.12,30.07,30.01,10,10,7,16,5,23,0.13,6,Rain,294
2012-10-8,51,43,35,41,36,29,92,67,42,30.29,30.22,30.11,10,9,2,13,5,20,0.01,4,Rain,300
2012-10-9,52,48,43,49,44,38,100,84,68,30.23,30.16,30.08,10,6,0,9,6,16,0.04,8,Fog-Rain,98
2012-10-10,59,51,43,52,46,34,100,76,51,30.08,29.94,29.83,10,5,0,22,9,28,0.09,7,Fog-Rain,206
2012-10-11,53,44,35,37,31,26,85,62,38,30.20,30.12,29.98,10,10,10,21,10,31,0.00,1,,279
2012-10-12,49,38,26,37,30,21,76,58,40,30.44,30.20,30.06,10,10,10,23,11,33,0.00,4,,316
2012-10-13,49,36,22,28,22,18,92,61,29,30.50,30.44,30.30,10,10,10,16,6,22,0.00,0,,221
2012-10-14,62,53,44,49,44,31,86,70,53,30.22,30.10,29.93,10,10,10,20,10,26,T,3,,209
2012-10-15,62,55,47,57,53,42,96,84,71,29.91,29.75,29.67,10,9,2,18,9,25,0.24,6,Rain,243
2012-10-16,51,42,32,41,34,30,89,69,48,29.94,29.81,29.71,10,10,10,25,12,38,0.00,4,,315
2012-10-17,61,46,31,39,35,29,92,64,36,30.03,29.98,29.94,10,10,10,12,4,16,0.00,0,,236
2012-10-18,62,52,42,54,47,39,100,78,55,30.03,29.97,29.91,10,8,0,21,10,28,0.19,6,Fog-Rain,144
2012-10-19,64,59,54,63,57,53,100,94,87,29.90,29.79,29.66,10,5,0,20,9,31,3.63,8,Fog-Rain,144
2012-10-20,57,49,41,54,45,35,93,74,54,29.86,29.73,29.67,10,8,0,18,9,25,0.00,3,Fog,277
2012-10-21,58,49,40,40,37,34,89,66,43,30.06,29.98,29.88,10,10,10,21,12,30,0.00,1,,295
2012-10-22,62,50,38,41,38,36,93,66,39,30.15,30.11,30.06,10,10,5,20,7,26,0.00,0,,302
2012-10-23,62,51,40,55,49,39,100,92,83,30.16,30.11,30.09,10,7,2,8,1,12,0.25,6,Rain,241
2012-10-24,69,61,52,57,53,51,100,84,68,30.19,30.12,30.09,10,3,0,12,3,15,0.02,7,Fog-Rain,119
2012-10-25,54,53,52,54,52,52,100,97,93,30.26,30.24,30.19,2,0,0,10,7,15,0.00,8,Fog,153
2012-10-26,56,55,53,54,53,52,100,93,86,30.24,30.19,30.13,7,3,2,10,4,13,0.00,8,,207
2012-10-27,56,55,53,54,53,51,100,93,86,30.12,30.02,29.95,10,5,0,12,5,16,0.04,7,Fog-Rain,85
2012-10-28,53,51,49,52,45,39,100,82,63,29.94,29.85,29.70,10,10,7,22,14,32,0.01,7,Rain,61
2012-10-29,56,52,47,54,47,42,93,87,80,29.70,29.06,28.64,10,5,2,40,23,59,0.99,8,Rain,33
2012-10-30,47,42,36,45,39,35,100,91,82,29.45,29.27,28.79,10,7,4,36,16,55,1.35,8,Rain,146
2012-10-31,39,38,36,36,35,33,100,93,85,29.57,29.49,29.42,10,9,0,15,8,21,T,8,Fog-Rain,217